sensor_id;sensor_type;location;lat;lon;timestamp;pressure;altitude;pressure_sealevel;temperature;humidity
46876;BME280;32866;50.160;14.768;2023-02-03T00:01:17;100148.44;;;1.01;100.00
46876;BME280;32866;50.160;14.768;2023-02-03T00:03:42;100149.84;;;0.76;100.00
46876;BME280;32866;50.160;14.768;2023-02-03T00:06:07;100138.03;;;0.64;100.00
46876;BME280;32866;50.160;14.768;2023-02-03T00:08:34;100148.75;;;0.61;100.00
46876;BME280;32866;50.160;14.768;2023-02-03T00:11:00;100145.22;;;0.60;100.00
46876;BME280;32866;50.160;14.768;2023-02-03T00:13:25;100149.00;;;0.55;100.00
46876;BME280;32866;50.160;14.768;2023-02-03T00:15:51;100127.25;;;0.48;100.00
46876;BME280;32866;50.160;14.768;2023-02-03T00:18:17;100137.69;;;0.50;100.00
46876;BME280;32866;50.160;14.768;2023-02-03T00:20:42;100113.97;;;0.40;100.00
46876;BME280;32866;50.160;14.768;2023-02-03T00:23:09;100136.66;;;0.54;100.00
46876;BME280;32866;50.160;14.768;2023-02-03T00:25:35;100144.03;;;0.58;100.00
46876;BME280;32866;50.160;14.768;2023-02-03T00:28:01;100143.34;;;0.61;100.00
46876;BME280;32866;50.160;14.768;2023-02-03T00:30:28;100139.84;;;0.60;100.00
46876;BME280;32866;50.160;14.768;2023-02-03T00:32:53;100152.06;;;0.54;100.00
46876;BME280;32866;50.160;14.768;2023-02-03T00:35:19;100140.03;;;0.67;100.00
46876;BME280;32866;50.160;14.768;2023-02-03T00:37:50;100144.38;;;0.56;100.00
46876;BME280;32866;50.160;14.768;2023-02-03T00:40:16;100123.44;;;0.33;100.00
46876;BME280;32866;50.160;14.768;2023-02-03T00:42:42;100125.03;;;0.34;100.00
46876;BME280;32866;50.160;14.768;2023-02-03T00:45:07;100133.19;;;0.54;100.00
46876;BME280;32866;50.160;14.768;2023-02-03T00:47:33;100103.19;;;0.40;100.00
46876;BME280;32866;50.160;14.768;2023-02-03T00:49:58;100094.06;;;0.28;100.00
46876;BME280;32866;50.160;14.768;2023-02-03T00:52:24;100113.41;;;0.50;100.00
46876;BME280;32866;50.160;14.768;2023-02-03T00:54:49;100099.09;;;0.30;100.00
46876;BME280;32866;50.160;14.768;2023-02-03T00:57:14;100121.06;;;0.64;100.00
46876;BME280;32866;50.160;14.768;2023-02-03T00:59:40;100130.75;;;0.84;100.00
46876;BME280;32866;50.160;14.768;2023-02-03T01:02:05;100118.56;;;0.74;100.00
46876;BME280;32866;50.160;14.768;2023-02-03T01:04:30;100083.47;;;0.55;100.00
46876;BME280;32866;50.160;14.768;2023-02-03T01:06:56;100085.31;;;0.51;100.00
46876;BME280;32866;50.160;14.768;2023-02-03T01:09:24;100110.28;;;0.83;100.00
46876;BME280;32866;50.160;14.768;2023-02-03T01:11:49;100088.84;;;0.71;100.00
46876;BME280;32866;50.160;14.768;2023-02-03T01:14:15;100092.78;;;0.77;100.00
46876;BME280;32866;50.160;14.768;2023-02-03T01:16:41;100089.81;;;1.02;100.00
46876;BME280;32866;50.160;14.768;2023-02-03T01:19:06;100109.66;;;1.09;100.00
46876;BME280;32866;50.160;14.768;2023-02-03T01:21:31;100103.03;;;1.07;100.00
46876;BME280;32866;50.160;14.768;2023-02-03T01:23:58;100091.59;;;1.14;100.00
46876;BME280;32866;50.160;14.768;2023-02-03T01:26:24;100091.00;;;1.24;100.00
46876;BME280;32866;50.160;14.768;2023-02-03T01:28:54;100075.25;;;1.06;100.00
46876;BME280;32866;50.160;14.768;2023-02-03T01:31:22;100088.59;;;1.19;100.00
46876;BME280;32866;50.160;14.768;2023-02-03T01:33:50;100087.94;;;1.25;100.00
46876;BME280;32866;50.160;14.768;2023-02-03T01:36:17;100082.44;;;1.18;100.00
46876;BME280;32866;50.160;14.768;2023-02-03T01:38:43;100085.75;;;1.31;100.00
46876;BME280;32866;50.160;14.768;2023-02-03T01:41:12;100056.66;;;1.21;100.00
46876;BME280;32866;50.160;14.768;2023-02-03T01:43:42;100044.44;;;1.07;100.00
46876;BME280;32866;50.160;14.768;2023-02-03T01:46:32;100019.63;;;1.02;100.00
46876;BME280;32866;50.160;14.768;2023-02-03T01:49:15;100051.78;;;1.30;100.00
46876;BME280;32866;50.160;14.768;2023-02-03T01:51:44;100051.97;;;1.41;100.00
46876;BME280;32866;50.160;14.768;2023-02-03T01:54:15;100024.59;;;1.42;100.00
46876;BME280;32866;50.160;14.768;2023-02-03T01:56:46;99985.69;;;1.24;100.00
46876;BME280;32866;50.160;14.768;2023-02-03T01:59:15;100032.03;;;1.49;100.00
46876;BME280;32866;50.160;14.768;2023-02-03T02:01:42;100022.03;;;1.50;100.00
46876;BME280;32866;50.160;14.768;2023-02-03T02:04:08;100016.63;;;1.50;100.00
46876;BME280;32866;50.160;14.768;2023-02-03T02:06:34;100008.09;;;1.47;100.00
46876;BME280;32866;50.160;14.768;2023-02-03T02:09:00;99971.38;;;1.20;100.00
46876;BME280;32866;50.160;14.768;2023-02-03T02:11:26;99993.28;;;1.38;100.00
46876;BME280;32866;50.160;14.768;2023-02-03T02:13:54;99978.34;;;1.21;100.00
46876;BME280;32866;50.160;14.768;2023-02-03T02:22:07;99980.19;;;1.17;100.00
46876;BME280;32866;50.160;14.768;2023-02-03T02:35:58;99992.16;;;0.96;100.00
46876;BME280;32866;50.160;14.768;2023-02-03T02:38:58;99984.06;;;0.96;100.00
46876;BME280;32866;50.160;14.768;2023-02-03T02:44:15;99975.56;;;0.94;100.00
46876;BME280;32866;50.160;14.768;2023-02-03T02:46:45;99940.78;;;0.69;100.00
46876;BME280;32866;50.160;14.768;2023-02-03T02:49:15;99956.09;;;0.85;100.00
46876;BME280;32866;50.160;14.768;2023-02-03T02:51:45;99940.31;;;0.64;100.00
46876;BME280;32866;50.160;14.768;2023-02-03T02:54:16;99922.34;;;0.52;100.00
46876;BME280;32866;50.160;14.768;2023-02-03T02:56:44;99941.16;;;0.68;100.00
46876;BME280;32866;50.160;14.768;2023-02-03T02:59:13;99931.38;;;0.60;100.00
46876;BME280;32866;50.160;14.768;2023-02-03T03:01:39;99900.91;;;0.59;100.00
46876;BME280;32866;50.160;14.768;2023-02-03T03:04:07;99931.94;;;0.69;100.00
46876;BME280;32866;50.160;14.768;2023-02-03T03:06:41;99919.66;;;0.52;100.00
46876;BME280;32866;50.160;14.768;2023-02-03T03:09:15;99935.81;;;0.52;100.00
46876;BME280;32866;50.160;14.768;2023-02-03T03:11:45;99936.41;;;0.61;100.00
46876;BME280;32866;50.160;14.768;2023-02-03T03:14:15;99925.78;;;0.49;100.00
46876;BME280;32866;50.160;14.768;2023-02-03T03:16:46;99935.34;;;0.46;100.00
46876;BME280;32866;50.160;14.768;2023-02-03T03:19:18;99916.34;;;0.39;100.00
46876;BME280;32866;50.160;14.768;2023-02-03T03:21:51;99892.44;;;0.18;100.00
46876;BME280;32866;50.160;14.768;2023-02-03T03:24:24;99919.81;;;0.40;100.00
46876;BME280;32866;50.160;14.768;2023-02-03T03:27:00;99891.00;;;0.24;100.00
46876;BME280;32866;50.160;14.768;2023-02-03T03:32:02;99911.88;;;0.27;100.00
46876;BME280;32866;50.160;14.768;2023-02-03T03:34:28;99883.78;;;0.09;100.00
46876;BME280;32866;50.160;14.768;2023-02-03T03:39:46;99895.19;;;0.22;100.00
46876;BME280;32866;50.160;14.768;2023-02-03T03:45:00;99875.00;;;0.12;100.00
46876;BME280;32866;50.160;14.768;2023-02-03T03:47:33;99873.84;;;0.13;100.00
46876;BME280;32866;50.160;14.768;2023-02-03T03:50:03;99847.88;;;0.05;100.00
46876;BME280;32866;50.160;14.768;2023-02-03T03:52:33;99866.91;;;0.12;100.00
46876;BME280;32866;50.160;14.768;2023-02-03T03:55:02;99866.03;;;0.08;100.00
46876;BME280;32866;50.160;14.768;2023-02-03T03:57:35;99859.88;;;0.07;100.00
46876;BME280;32866;50.160;14.768;2023-02-03T04:00:04;99827.75;;;-0.02;100.00
46876;BME280;32866;50.160;14.768;2023-02-03T04:02:31;99829.72;;;0.02;100.00
46876;BME280;32866;50.160;14.768;2023-02-03T04:04:59;99847.16;;;0.27;100.00
46876;BME280;32866;50.160;14.768;2023-02-03T04:07:37;99847.16;;;0.27;100.00
46876;BME280;32866;50.160;14.768;2023-02-03T04:10:06;99828.03;;;0.13;100.00
46876;BME280;32866;50.160;14.768;2023-02-03T04:12:35;99822.03;;;0.23;100.00
46876;BME280;32866;50.160;14.768;2023-02-03T04:15:01;99863.47;;;0.34;100.00
46876;BME280;32866;50.160;14.768;2023-02-03T04:17:26;99847.47;;;0.45;100.00
46876;BME280;32866;50.160;14.768;2023-02-03T04:19:52;99809.72;;;0.22;100.00
46876;BME280;32866;50.160;14.768;2023-02-03T04:22:17;99839.88;;;0.51;100.00
46876;BME280;32866;50.160;14.768;2023-02-03T04:24:42;99810.31;;;0.35;100.00
46876;BME280;32866;50.160;14.768;2023-02-03T04:27:08;99799.97;;;0.37;100.00
46876;BME280;32866;50.160;14.768;2023-02-03T04:29:33;99812.88;;;0.47;100.00
46876;BME280;32866;50.160;14.768;2023-02-03T04:31:58;99792.78;;;0.45;100.00
46876;BME280;32866;50.160;14.768;2023-02-03T04:34:24;99791.47;;;0.58;100.00
46876;BME280;32866;50.160;14.768;2023-02-03T04:36:49;99794.88;;;0.55;100.00
46876;BME280;32866;50.160;14.768;2023-02-03T04:39:14;99782.84;;;0.49;100.00
46876;BME280;32866;50.160;14.768;2023-02-03T04:41:40;99777.66;;;0.63;100.00
46876;BME280;32866;50.160;14.768;2023-02-03T04:44:05;99790.72;;;0.84;100.00
46876;BME280;32866;50.160;14.768;2023-02-03T04:46:31;99756.50;;;0.65;100.00
46876;BME280;32866;50.160;14.768;2023-02-03T04:48:56;99763.16;;;0.71;100.00
46876;BME280;32866;50.160;14.768;2023-02-03T04:51:22;99755.66;;;0.84;100.00
46876;BME280;32866;50.160;14.768;2023-02-03T04:53:47;99749.44;;;0.84;100.00
46876;BME280;32866;50.160;14.768;2023-02-03T04:56:12;99755.16;;;1.05;100.00
46876;BME280;32866;50.160;14.768;2023-02-03T04:58:40;99736.53;;;0.97;100.00
46876;BME280;32866;50.160;14.768;2023-02-03T05:01:06;99740.13;;;1.04;100.00
46876;BME280;32866;50.160;14.768;2023-02-03T05:03:33;99713.78;;;1.24;100.00
46876;BME280;32866;50.160;14.768;2023-02-03T05:05:59;99698.28;;;1.18;100.00
46876;BME280;32866;50.160;14.768;2023-02-03T05:08:24;99684.97;;;1.05;100.00
46876;BME280;32866;50.160;14.768;2023-02-03T05:10:50;99694.09;;;1.24;100.00
46876;BME280;32866;50.160;14.768;2023-02-03T05:13:15;99682.78;;;1.15;100.00
46876;BME280;32866;50.160;14.768;2023-02-03T05:15:40;99692.19;;;1.24;100.00
46876;BME280;32866;50.160;14.768;2023-02-03T05:18:06;99662.13;;;1.26;100.00
46876;BME280;32866;50.160;14.768;2023-02-03T05:20:31;99683.06;;;1.36;100.00
46876;BME280;32866;50.160;14.768;2023-02-03T05:22:57;99667.59;;;1.33;100.00
46876;BME280;32866;50.160;14.768;2023-02-03T05:25:22;99677.13;;;1.61;100.00
46876;BME280;32866;50.160;14.768;2023-02-03T05:27:48;99693.84;;;1.70;100.00
46876;BME280;32866;50.160;14.768;2023-02-03T05:30:13;99663.16;;;1.52;100.00
46876;BME280;32866;50.160;14.768;2023-02-03T05:32:39;99667.84;;;1.55;100.00
46876;BME280;32866;50.160;14.768;2023-02-03T05:35:04;99661.72;;;1.61;100.00
46876;BME280;32866;50.160;14.768;2023-02-03T05:37:30;99640.00;;;1.51;100.00
46876;BME280;32866;50.160;14.768;2023-02-03T05:39:55;99652.44;;;1.59;100.00
46876;BME280;32866;50.160;14.768;2023-02-03T05:42:48;99658.34;;;1.72;100.00
46876;BME280;32866;50.160;14.768;2023-02-03T05:45:14;99649.53;;;1.78;100.00
46876;BME280;32866;50.160;14.768;2023-02-03T05:47:39;99634.13;;;1.82;100.00
46876;BME280;32866;50.160;14.768;2023-02-03T05:50:05;99635.69;;;1.83;100.00
46876;BME280;32866;50.160;14.768;2023-02-03T05:52:30;99646.22;;;1.99;100.00
46876;BME280;32866;50.160;14.768;2023-02-03T05:54:55;99645.91;;;2.04;100.00
46876;BME280;32866;50.160;14.768;2023-02-03T05:57:21;99639.78;;;2.11;100.00
46876;BME280;32866;50.160;14.768;2023-02-03T05:59:46;99621.97;;;2.03;100.00
46876;BME280;32866;50.160;14.768;2023-02-03T06:02:12;99617.28;;;2.00;100.00
46876;BME280;32866;50.160;14.768;2023-02-03T06:04:37;99624.28;;;2.04;100.00
46876;BME280;32866;50.160;14.768;2023-02-03T06:07:02;99625.16;;;2.19;100.00
46876;BME280;32866;50.160;14.768;2023-02-03T06:09:28;99607.00;;;2.16;100.00
46876;BME280;32866;50.160;14.768;2023-02-03T06:11:53;99624.88;;;2.32;100.00
46876;BME280;32866;50.160;14.768;2023-02-03T06:14:18;99614.81;;;2.32;100.00
46876;BME280;32866;50.160;14.768;2023-02-03T06:16:44;99622.31;;;2.57;100.00
46876;BME280;32866;50.160;14.768;2023-02-03T06:19:09;99628.94;;;2.63;100.00
46876;BME280;32866;50.160;14.768;2023-02-03T06:21:34;99599.09;;;2.52;100.00
46876;BME280;32866;50.160;14.768;2023-02-03T06:24:00;99608.44;;;2.58;100.00
46876;BME280;32866;50.160;14.768;2023-02-03T06:26:25;99616.97;;;2.68;100.00
46876;BME280;32866;50.160;14.768;2023-02-03T06:28:51;99606.94;;;2.72;100.00
46876;BME280;32866;50.160;14.768;2023-02-03T06:31:16;99623.94;;;2.69;100.00
46876;BME280;32866;50.160;14.768;2023-02-03T06:33:41;99629.81;;;2.85;100.00
46876;BME280;32866;50.160;14.768;2023-02-03T06:36:07;99596.88;;;2.69;100.00
46876;BME280;32866;50.160;14.768;2023-02-03T06:38:32;99602.72;;;2.78;100.00
46876;BME280;32866;50.160;14.768;2023-02-03T06:40:58;99603.53;;;2.86;100.00
46876;BME280;32866;50.160;14.768;2023-02-03T06:43:23;99606.69;;;3.02;100.00
46876;BME280;32866;50.160;14.768;2023-02-03T06:45:48;99609.44;;;3.13;100.00
46876;BME280;32866;50.160;14.768;2023-02-03T06:48:14;99620.69;;;3.22;100.00
46876;BME280;32866;50.160;14.768;2023-02-03T06:50:40;99608.28;;;3.21;100.00
46876;BME280;32866;50.160;14.768;2023-02-03T06:53:06;99605.59;;;3.18;100.00
46876;BME280;32866;50.160;14.768;2023-02-03T06:55:31;99606.34;;;3.22;100.00
46876;BME280;32866;50.160;14.768;2023-02-03T06:57:57;99587.38;;;3.18;100.00
46876;BME280;32866;50.160;14.768;2023-02-03T07:00:22;99607.91;;;3.19;100.00
46876;BME280;32866;50.160;14.768;2023-02-03T07:02:55;99600.97;;;3.32;100.00
46876;BME280;32866;50.160;14.768;2023-02-03T07:05:22;99594.81;;;3.39;100.00
46876;BME280;32866;50.160;14.768;2023-02-03T07:07:48;99582.78;;;3.22;100.00
46876;BME280;32866;50.160;14.768;2023-02-03T07:10:14;99583.22;;;3.42;100.00
46876;BME280;32866;50.160;14.768;2023-02-03T07:12:40;99575.03;;;3.31;100.00
46876;BME280;32866;50.160;14.768;2023-02-03T07:15:05;99579.31;;;3.32;100.00
46876;BME280;32866;50.160;14.768;2023-02-03T07:17:31;99598.66;;;3.34;100.00
46876;BME280;32866;50.160;14.768;2023-02-03T07:19:56;99573.09;;;3.28;100.00
46876;BME280;32866;50.160;14.768;2023-02-03T07:22:21;99574.69;;;3.51;100.00
46876;BME280;32866;50.160;14.768;2023-02-03T07:24:47;99561.53;;;3.42;100.00
46876;BME280;32866;50.160;14.768;2023-02-03T07:27:12;99559.59;;;3.39;100.00
46876;BME280;32866;50.160;14.768;2023-02-03T07:29:37;99568.09;;;3.48;100.00
46876;BME280;32866;50.160;14.768;2023-02-03T07:32:03;99581.28;;;3.61;100.00
46876;BME280;32866;50.160;14.768;2023-02-03T07:34:28;99587.09;;;3.66;100.00
46876;BME280;32866;50.160;14.768;2023-02-03T07:36:54;99578.97;;;3.70;100.00
46876;BME280;32866;50.160;14.768;2023-02-03T07:39:19;99556.53;;;3.59;100.00
46876;BME280;32866;50.160;14.768;2023-02-03T07:41:45;99598.34;;;3.76;100.00
46876;BME280;32866;50.160;14.768;2023-02-03T07:44:10;99563.88;;;3.72;100.00
46876;BME280;32866;50.160;14.768;2023-02-03T07:46:36;99559.22;;;3.80;100.00
46876;BME280;32866;50.160;14.768;2023-02-03T07:49:05;99560.00;;;3.88;100.00
46876;BME280;32866;50.160;14.768;2023-02-03T07:51:31;99533.69;;;3.70;100.00
46876;BME280;32866;50.160;14.768;2023-02-03T07:53:56;99547.22;;;3.81;100.00
46876;BME280;32866;50.160;14.768;2023-02-03T07:56:21;99544.50;;;3.88;100.00
46876;BME280;32866;50.160;14.768;2023-02-03T07:58:47;99505.03;;;3.84;100.00
46876;BME280;32866;50.160;14.768;2023-02-03T08:03:47;99522.81;;;3.99;100.00
46876;BME280;32866;50.160;14.768;2023-02-03T08:06:13;99517.41;;;3.99;100.00
46876;BME280;32866;50.160;14.768;2023-02-03T08:08:38;99511.56;;;4.01;100.00
46876;BME280;32866;50.160;14.768;2023-02-03T08:11:05;99515.03;;;4.19;100.00
46876;BME280;32866;50.160;14.768;2023-02-03T08:13:31;99499.56;;;4.02;100.00
46876;BME280;32866;50.160;14.768;2023-02-03T08:15:56;99494.88;;;4.13;100.00
46876;BME280;32866;50.160;14.768;2023-02-03T08:18:31;99501.06;;;4.24;100.00
46876;BME280;32866;50.160;14.768;2023-02-03T08:21:00;99488.69;;;4.13;100.00
46876;BME280;32866;50.160;14.768;2023-02-03T08:23:48;99494.13;;;4.09;100.00
46876;BME280;32866;50.160;14.768;2023-02-03T08:26:32;99477.47;;;4.07;100.00
46876;BME280;32866;50.160;14.768;2023-02-03T08:28:57;99493.31;;;4.26;100.00
46876;BME280;32866;50.160;14.768;2023-02-03T08:31:22;99482.06;;;4.28;100.00
46876;BME280;32866;50.160;14.768;2023-02-03T08:33:48;99479.34;;;4.32;100.00
46876;BME280;32866;50.160;14.768;2023-02-03T08:36:13;99472.38;;;4.27;100.00
46876;BME280;32866;50.160;14.768;2023-02-03T08:38:39;99499.47;;;4.41;100.00
46876;BME280;32866;50.160;14.768;2023-02-03T08:41:12;99485.84;;;4.49;100.00
46876;BME280;32866;50.160;14.768;2023-02-03T08:43:38;99476.19;;;4.44;100.00
46876;BME280;32866;50.160;14.768;2023-02-03T08:46:04;99435.16;;;4.24;100.00
46876;BME280;32866;50.160;14.768;2023-02-03T08:48:31;99451.00;;;4.43;100.00
46876;BME280;32866;50.160;14.768;2023-02-03T08:50:57;99448.22;;;4.51;100.00
46876;BME280;32866;50.160;14.768;2023-02-03T08:53:22;99472.22;;;4.63;100.00
46876;BME280;32866;50.160;14.768;2023-02-03T08:55:48;99446.34;;;4.48;100.00
46876;BME280;32866;50.160;14.768;2023-02-03T08:58:13;99456.38;;;4.58;100.00
46876;BME280;32866;50.160;14.768;2023-02-03T09:00:40;99469.09;;;4.68;100.00
46876;BME280;32866;50.160;14.768;2023-02-03T09:03:06;99459.09;;;4.47;100.00
46876;BME280;32866;50.160;14.768;2023-02-03T09:05:31;99484.63;;;4.64;100.00
46876;BME280;32866;50.160;14.768;2023-02-03T09:07:58;99470.63;;;4.69;100.00
46876;BME280;32866;50.160;14.768;2023-02-03T09:10:33;99447.50;;;4.46;100.00
46876;BME280;32866;50.160;14.768;2023-02-03T09:12:58;99470.75;;;4.51;100.00
46876;BME280;32866;50.160;14.768;2023-02-03T09:15:24;99469.56;;;4.52;100.00
46876;BME280;32866;50.160;14.768;2023-02-03T09:17:50;99456.78;;;4.53;100.00
46876;BME280;32866;50.160;14.768;2023-02-03T09:20:15;99456.38;;;4.58;100.00
46876;BME280;32866;50.160;14.768;2023-02-03T09:22:41;99442.03;;;4.54;100.00
46876;BME280;32866;50.160;14.768;2023-02-03T09:25:06;99432.75;;;4.51;100.00
46876;BME280;32866;50.160;14.768;2023-02-03T09:27:32;99421.56;;;4.38;100.00
46876;BME280;32866;50.160;14.768;2023-02-03T09:29:57;99429.66;;;4.42;100.00
46876;BME280;32866;50.160;14.768;2023-02-03T09:32:23;99418.81;;;4.49;100.00
46876;BME280;32866;50.160;14.768;2023-02-03T09:34:49;99415.72;;;4.43;100.00
46876;BME280;32866;50.160;14.768;2023-02-03T09:37:15;99428.81;;;4.59;100.00
46876;BME280;32866;50.160;14.768;2023-02-03T09:39:40;99431.16;;;4.61;100.00
46876;BME280;32866;50.160;14.768;2023-02-03T09:42:35;99421.47;;;4.56;100.00
46876;BME280;32866;50.160;14.768;2023-02-03T09:47:47;99403.22;;;4.60;100.00
46876;BME280;32866;50.160;14.768;2023-02-03T09:50:27;99387.03;;;4.42;100.00
46876;BME280;32866;50.160;14.768;2023-02-03T09:52:55;99381.56;;;4.50;100.00
46876;BME280;32866;50.160;14.768;2023-02-03T09:55:42;99370.66;;;4.57;100.00
46876;BME280;32866;50.160;14.768;2023-02-03T09:58:15;99379.94;;;4.63;100.00
46876;BME280;32866;50.160;14.768;2023-02-03T10:01:02;99358.00;;;4.39;100.00
46876;BME280;32866;50.160;14.768;2023-02-03T10:03:42;99385.78;;;4.58;100.00
46876;BME280;32866;50.160;14.768;2023-02-03T10:06:32;99352.16;;;4.44;100.00
46876;BME280;32866;50.160;14.768;2023-02-03T10:18:07;99346.56;;;4.70;100.00
46876;BME280;32866;50.160;14.768;2023-02-03T10:20:41;99324.91;;;4.59;100.00
46876;BME280;32866;50.160;14.768;2023-02-03T10:23:39;99339.53;;;4.72;100.00
46876;BME280;32866;50.160;14.768;2023-02-03T10:26:15;99314.06;;;4.55;100.00
46876;BME280;32866;50.160;14.768;2023-02-03T10:28:52;99310.84;;;4.75;100.00
46876;BME280;32866;50.160;14.768;2023-02-03T10:31:22;99313.94;;;4.73;100.00
46876;BME280;32866;50.160;14.768;2023-02-03T10:33:55;99304.63;;;4.74;100.00
46876;BME280;32866;50.160;14.768;2023-02-03T10:36:32;99285.31;;;4.65;100.00
46876;BME280;32866;50.160;14.768;2023-02-03T10:39:20;99286.72;;;4.80;100.00
46876;BME280;32866;50.160;14.768;2023-02-03T10:41:48;99296.31;;;4.92;100.00
46876;BME280;32866;50.160;14.768;2023-02-03T10:44:14;99292.84;;;4.92;100.00
46876;BME280;32866;50.160;14.768;2023-02-03T10:46:41;99299.00;;;4.99;100.00
46876;BME280;32866;50.160;14.768;2023-02-03T10:49:11;99271.91;;;4.89;100.00
46876;BME280;32866;50.160;14.768;2023-02-03T10:51:50;99268.69;;;5.01;100.00
46876;BME280;32866;50.160;14.768;2023-02-03T10:54:34;99265.19;;;5.04;100.00
46876;BME280;32866;50.160;14.768;2023-02-03T10:57:10;99247.03;;;4.94;100.00
46876;BME280;32866;50.160;14.768;2023-02-03T10:59:39;99253.16;;;5.05;100.00
46876;BME280;32866;50.160;14.768;2023-02-03T11:04:40;99217.47;;;5.03;100.00
46876;BME280;32866;50.160;14.768;2023-02-03T11:07:06;99205.06;;;5.02;100.00
46876;BME280;32866;50.160;14.768;2023-02-03T11:09:47;99208.09;;;5.08;100.00
46876;BME280;32866;50.160;14.768;2023-02-03T11:12:15;99193.84;;;5.00;100.00
46876;BME280;32866;50.160;14.768;2023-02-03T11:14:42;99214.16;;;5.23;100.00
46876;BME280;32866;50.160;14.768;2023-02-03T11:17:17;99174.63;;;5.18;100.00
46876;BME280;32866;50.160;14.768;2023-02-03T11:19:45;99201.53;;;5.39;100.00
46876;BME280;32866;50.160;14.768;2023-02-03T11:22:13;99185.66;;;5.38;100.00
46876;BME280;32866;50.160;14.768;2023-02-03T11:24:51;99167.50;;;5.28;100.00
46876;BME280;32866;50.160;14.768;2023-02-03T11:27:17;99147.13;;;5.12;100.00
46876;BME280;32866;50.160;14.768;2023-02-03T11:29:48;99154.66;;;5.32;100.00
46876;BME280;32866;50.160;14.768;2023-02-03T11:32:22;99154.22;;;5.37;100.00
46876;BME280;32866;50.160;14.768;2023-02-03T11:34:58;99160.13;;;5.59;100.00
46876;BME280;32866;50.160;14.768;2023-02-03T11:37:39;99150.34;;;5.65;100.00
46876;BME280;32866;50.160;14.768;2023-02-03T11:42:31;99142.06;;;5.72;100.00
46876;BME280;32866;50.160;14.768;2023-02-03T11:45:13;99145.47;;;5.80;100.00
46876;BME280;32866;50.160;14.768;2023-02-03T11:48:28;99118.06;;;5.67;100.00
46876;BME280;32866;50.160;14.768;2023-02-03T12:21:51;99108.16;;;6.08;100.00
46876;BME280;32866;50.160;14.768;2023-02-03T12:27:26;99089.41;;;6.13;100.00
46876;BME280;32866;50.160;14.768;2023-02-03T12:29:59;99066.22;;;6.05;100.00
46876;BME280;32866;50.160;14.768;2023-02-03T12:32:28;99062.59;;;5.88;100.00
46876;BME280;32866;50.160;14.768;2023-02-03T12:40:35;99073.59;;;6.05;100.00
46876;BME280;32866;50.160;14.768;2023-02-03T12:43:16;99062.13;;;5.93;100.00
46876;BME280;32866;50.160;14.768;2023-02-03T12:51:13;99053.50;;;5.75;100.00
46876;BME280;32866;50.160;14.768;2023-02-03T12:53:46;99061.88;;;5.84;100.00
46876;BME280;32866;50.160;14.768;2023-02-03T12:56:18;99044.47;;;5.78;100.00
46876;BME280;32866;50.160;14.768;2023-02-03T12:58:49;99028.63;;;5.76;100.00
46876;BME280;32866;50.160;14.768;2023-02-03T13:01:21;99011.69;;;5.89;100.00
46876;BME280;32866;50.160;14.768;2023-02-03T13:03:53;98998.78;;;5.93;100.00
46876;BME280;32866;50.160;14.768;2023-02-03T13:09:54;98964.31;;;6.10;100.00
46876;BME280;32866;50.160;14.768;2023-02-03T13:13:03;98958.75;;;6.17;100.00
46876;BME280;32866;50.160;14.768;2023-02-03T13:18:41;98952.94;;;5.95;100.00
46876;BME280;32866;50.160;14.768;2023-02-03T13:20:39;98951.34;;;5.98;100.00
46876;BME280;32866;50.160;14.768;2023-02-03T13:23:07;98924.94;;;5.94;100.00
46876;BME280;32866;50.160;14.768;2023-02-03T13:42:31;98997.88;;;6.43;100.00
46876;BME280;32866;50.160;14.768;2023-02-03T13:45:26;98989.31;;;6.45;100.00
46876;BME280;32866;50.160;14.768;2023-02-03T13:47:56;98933.94;;;6.15;100.00
46876;BME280;32866;50.160;14.768;2023-02-03T13:50:25;98976.41;;;6.29;100.00
46876;BME280;32866;50.160;14.768;2023-02-03T13:55:40;98993.09;;;6.51;100.00
46876;BME280;32866;50.160;14.768;2023-02-03T13:58:11;98997.28;;;6.56;100.00
46876;BME280;32866;50.160;14.768;2023-02-03T14:04:04;98980.47;;;6.41;100.00
46876;BME280;32866;50.160;14.768;2023-02-03T14:06:04;98975.66;;;6.28;100.00
46876;BME280;32866;50.160;14.768;2023-02-03T14:16:41;98969.41;;;5.84;100.00
46876;BME280;32866;50.160;14.768;2023-02-03T14:21:50;98964.19;;;5.73;100.00
46876;BME280;32866;50.160;14.768;2023-02-03T14:24:17;98927.38;;;5.45;100.00
46876;BME280;32866;50.160;14.768;2023-02-03T14:26:51;98975.94;;;5.67;100.00
46876;BME280;32866;50.160;14.768;2023-02-03T14:29:26;98975.53;;;5.68;100.00
46876;BME280;32866;50.160;14.768;2023-02-03T14:31:55;98973.03;;;5.54;100.00
46876;BME280;32866;50.160;14.768;2023-02-03T14:34:30;98980.19;;;5.44;100.00
46876;BME280;32866;50.160;14.768;2023-02-03T14:37:26;98967.13;;;5.35;100.00
46876;BME280;32866;50.160;14.768;2023-02-03T14:40:08;98992.59;;;5.45;100.00
46876;BME280;32866;50.160;14.768;2023-02-03T14:56:37;99013.72;;;5.34;100.00
46876;BME280;32866;50.160;14.768;2023-02-03T14:59:29;99014.72;;;5.20;100.00
46876;BME280;32866;50.160;14.768;2023-02-03T15:04:26;99110.09;;;5.26;100.00
46876;BME280;32866;50.160;14.768;2023-02-03T15:06:52;99103.53;;;4.58;100.00
46876;BME280;32866;50.160;14.768;2023-02-03T15:11:43;99113.34;;;3.43;100.00
46876;BME280;32866;50.160;14.768;2023-02-03T15:14:17;99187.03;;;3.06;100.00
46876;BME280;32866;50.160;14.768;2023-02-03T15:16:44;99133.03;;;2.48;100.00
46876;BME280;32866;50.160;14.768;2023-02-03T15:19:24;99168.53;;;2.79;100.00
46876;BME280;32866;50.160;14.768;2023-02-03T15:21:53;99136.03;;;2.86;100.00
46876;BME280;32866;50.160;14.768;2023-02-03T15:24:20;99138.25;;;3.13;100.00
46876;BME280;32866;50.160;14.768;2023-02-03T15:26:50;99106.53;;;3.10;100.00
46876;BME280;32866;50.160;14.768;2023-02-03T15:29:33;99148.16;;;3.52;100.00